CDT,Max TemperatureF,Mean TemperatureF,Min TemperatureF,Max Dew PointF,MeanDew PointF,Min DewpointF,Max Humidity, Mean Humidity, Min Humidity, Max Sea Level PressureIn, Mean Sea Level PressureIn, Min Sea Level PressureIn, Max VisibilityMiles, Mean VisibilityMiles, Min VisibilityMiles, Max Wind SpeedMPH, Mean Wind SpeedMPH, Max Gust SpeedMPH,PrecipitationIn, CloudCover, Events, WindDirDegrees
2013-5-1,80,70,60,57,53,48,64,55,44,30.08,30.04,29.98,10,10,9,14,6,20,0.00,1,,120
2013-5-2,75,66,57,57,53,48,77,65,50,30.14,30.09,30.03,10,10,7,9,3,,0.05,4,,81
2013-5-3,62,52,42,55,43,32,77,72,66,30.02,29.93,29.88,10,9,5,16,8,24,1.61,8,,231
2013-5-4,53,45,37,37,33,28,75,62,50,29.98,29.95,29.91,10,10,10,7,4,,0.02,7,,105
2013-5-5,59,52,46,45,41,37,76,66,54,29.94,29.91,29.88,10,10,4,13,7,18,0.04,6,,325
2013-5-6,64,58,53,50,47,45,77,67,59,29.96,29.90,29.85,10,9,1,15,7,21,0.00,8,,327
2013-5-7,73,62,51,55,51,43,82,64,50,30.03,30.00,29.94,10,9,0,10,3,,0.00,4,,312
2013-5-8,80,66,53,57,53,46,82,60,42,30.09,30.04,30.01,10,8,0,9,2,,0.00,0,,252
2013-5-9,82,71,60,59,55,52,72,57,39,30.08,30.01,29.95,10,10,10,17,4,23,0.00,3,,201
2013-5-10,77,70,62,61,57,54,77,67,53,29.97,29.92,29.87,10,10,4,12,6,21,0.88,5,Thunderstorm,251
2013-5-11,71,65,59,54,48,37,72,57,43,30.13,30.02,29.97,10,10,10,16,8,21,0.00,5,,341
2013-5-12,64,55,46,37,32,27,62,42,27,30.25,30.20,30.14,10,10,10,13,8,20,0.00,0,,341
2013-5-13,73,58,44,46,40,36,76,52,25,30.29,30.21,30.14,10,10,4,7,1,,0.00,2,,188
2013-5-14,84,70,57,57,51,45,63,46,35,30.13,30.06,29.99,10,10,10,17,7,26,0.00,0,,206
2013-5-15,84,76,68,57,50,46,52,41,27,30.10,30.03,29.96,10,10,10,20,11,25,0.00,0,,227
2013-5-16,80,72,64,57,54,52,68,56,44,30.03,29.97,29.92,10,10,10,9,4,,0.00,4,,167
2013-5-17,73,68,64,61,58,54,78,71,60,29.97,29.94,29.91,10,8,0,13,4,,0.64,7,Thunderstorm,127
2013-5-18,86,74,62,66,61,55,78,66,48,30.02,29.96,29.92,10,6,0,7,2,,0.01,6,,117
2013-5-19,89,80,71,66,63,61,78,58,38,29.98,29.92,29.86,10,9,5,13,6,23,0.00,1,,179
2013-5-20,87,79,71,66,63,63,73,59,46,29.96,29.91,29.83,10,10,10,16,8,24,0.00,3,,184
2013-5-21,78,71,64,64,59,55,78,71,61,30.02,29.90,29.82,10,9,4,20,7,32,2.66,5,Thunderstorm,160
2013-5-22,78,71,64,61,57,55,77,62,47,29.90,29.85,29.73,10,10,2,16,9,22,0.00,4,,226
2013-5-23,77,68,60,57,53,48,68,56,47,30.16,30.02,29.90,10,10,10,17,7,28,0.00,2,,318
2013-5-24,71,61,51,48,44,41,67,53,38,30.36,30.28,30.17,10,10,10,15,10,21,0.00,0,,40
2013-5-25,77,64,50,52,46,41,72,52,36,30.35,30.27,30.15,10,10,3,8,4,,0.00,0,,129
2013-5-26,84,70,55,55,53,46,72,49,35,30.21,30.15,30.09,10,10,7,9,4,,0.00,0,,159
2013-5-27,86,75,64,63,57,52,64,52,39,30.11,30.04,29.96,10,10,10,14,6,22,0.00,2,,177
2013-5-28,87,79,71,64,59,54,65,52,37,30.06,29.99,29.96,10,10,10,14,8,23,0.00,1,,174
2013-5-29,86,76,66,63,58,52,64,52,37,30.06,30.00,29.94,10,10,7,13,6,22,0.00,1,,159
2013-5-30,86,78,71,66,62,61,69,59,48,30.03,29.99,29.91,10,10,10,17,9,28,0.00,3,Thunderstorm,161
2013-5-31,84,75,66,68,63,57,78,66,58,30.00,29.94,29.85,10,10,6,18,9,33,0.88,7,Thunderstorm,165